Terminal Aerodrome Forecast
Issued by NWS Tallahassee, FL

Home | Current Version | Previous Version | Text Only | Print | Product List | Glossary On
Versions: 1 2 3 4 5 6 7 8 9 10 11 12 13 14 15 16 17 18 19 20 21 22 23 24 25 26 27 28 29
000
FTUS42 KTAE 032300
TAFTLH
TAF
KTLH 032331Z 0400/0424 15004KT P6SM SCT050
     FM040600 16003KT 2SM BR BKN002
     FM041000 00000KT 1/4SM FG VV001
     FM041400 16004KT 3SM BR OVC004
     FM041600 19008KT P6SM SCT015 BKN035=

USA.gov is the U.S. government's official web portal to all federal, state and local government web resources and services.